createdAt,value
2018-10-06T00:00:26.618Z,13.33
2018-10-06T00:02:57.185Z,16.97
2018-10-06T00:05:27.473Z,10.60
2018-10-06T00:07:58.158Z,13.77
2018-10-06T00:10:28.922Z,12.70
2018-10-06T00:12:59.886Z,9.67
2018-10-06T00:15:30.508Z,9.40
2018-10-06T00:18:01.064Z,14.00
2018-10-06T00:20:31.782Z,10.67
2018-10-06T00:23:02.586Z,16.53
2018-10-06T00:25:32.904Z,11.60
2018-10-06T00:28:03.437Z,11.00
2018-10-06T00:30:33.796Z,12.20
2018-10-06T00:33:04.307Z,6.93
2018-10-06T00:35:34.869Z,14.40
2018-10-06T00:38:05.428Z,8.47
2018-10-06T00:40:35.993Z,10.07
2018-10-06T00:43:06.300Z,18.20
2018-10-06T00:45:36.528Z,14.00
2018-10-06T00:48:08.448Z,12.73
2018-10-06T00:50:38.977Z,11.80
2018-10-06T00:53:09.224Z,23.70
2018-10-06T00:55:39.821Z,14.63
2018-10-06T00:58:10.608Z,9.63
2018-10-06T01:00:41.134Z,8.90
2018-10-06T01:03:11.385Z,7.00
2018-10-06T01:05:41.912Z,15.00
2018-10-06T01:08:12.774Z,16.37
2018-10-06T01:10:43.557Z,15.57
2018-10-06T01:13:14.401Z,13.70
2018-10-06T01:15:44.936Z,12.43
2018-10-06T01:18:16.204Z,19.27
2018-10-06T01:20:46.988Z,8.97
2018-10-06T01:23:17.745Z,20.83
2018-10-06T01:25:48.992Z,11.23
2018-10-06T01:28:19.505Z,12.80
2018-10-06T01:30:50.022Z,11.10
2018-10-06T01:33:20.732Z,15.67
2018-10-06T01:35:51.280Z,12.30
2018-10-06T01:38:21.826Z,11.13
2018-10-06T01:40:52.083Z,12.97
2018-10-06T01:43:22.688Z,15.47
2018-10-06T01:45:53.162Z,12.63
2018-10-06T01:48:24.001Z,23.33
2018-10-06T01:50:54.732Z,16.87
2018-10-06T01:53:25.356Z,14.57
2018-10-06T01:55:57.692Z,12.13
2018-10-06T01:58:28.248Z,17.17
2018-10-06T02:00:59.719Z,18.83
2018-10-06T02:03:30.261Z,12.10
2018-10-06T02:06:00.533Z,12.60
2018-10-06T02:08:31.892Z,14.60
2018-10-06T02:11:02.753Z,21.10
2018-10-06T02:13:33.277Z,17.07
2018-10-06T02:16:03.800Z,16.53
2018-10-06T02:18:34.344Z,25.20
2018-10-06T02:21:04.960Z,22.37
2018-10-06T02:23:35.495Z,17.50
2018-10-06T02:26:05.946Z,12.17
2018-10-06T02:28:36.754Z,14.93
2018-10-06T02:31:07.608Z,15.73
2018-10-06T02:33:37.878Z,15.80
2018-10-06T02:36:08.205Z,20.77
2018-10-06T02:38:38.773Z,16.80
2018-10-06T02:41:09.123Z,16.60
2018-10-06T02:43:39.652Z,13.93
2018-10-06T02:46:10.292Z,22.40
2018-10-06T02:48:40.858Z,15.33
2018-10-06T02:51:11.433Z,15.73
2018-10-06T02:53:42.004Z,16.03
2018-10-06T02:56:13.030Z,18.80
2018-10-06T02:58:44.029Z,15.50
2018-10-06T03:01:14.742Z,23.20
2018-10-06T03:03:45.436Z,18.13
2018-10-06T03:06:16.004Z,12.20
2018-10-06T03:08:46.563Z,20.10
2018-10-06T03:11:17.178Z,16.63
2018-10-06T03:13:47.839Z,16.90
2018-10-06T03:16:18.397Z,18.40
2018-10-06T03:18:50.192Z,31.27
2018-10-06T03:21:20.646Z,16.67
2018-10-06T03:23:51.824Z,13.30
2018-10-06T03:26:22.636Z,19.30
2018-10-06T03:28:54.051Z,18.70
2018-10-06T03:31:24.568Z,19.57
2018-10-06T03:33:55.101Z,17.80
2018-10-06T03:36:25.648Z,14.13
2018-10-06T03:38:55.956Z,17.73
2018-10-06T03:41:26.460Z,18.73
2018-10-06T03:43:56.875Z,17.93
2018-10-06T03:46:27.433Z,16.17
2018-10-06T03:48:58.014Z,20.43
2018-10-06T03:51:28.273Z,22.13
2018-10-06T03:53:58.856Z,22.50
2018-10-06T03:56:29.277Z,19.47
2018-10-06T03:59:02.587Z,36.33
2018-10-06T04:01:33.114Z,31.20
2018-10-06T04:04:03.719Z,18.00
2018-10-06T04:06:34.277Z,20.00
2018-10-06T04:09:07.241Z,39.83
2018-10-06T04:11:38.352Z,25.10
2018-10-06T04:14:08.842Z,20.70
2018-10-06T04:16:39.085Z,27.97
2018-10-06T04:19:10.200Z,30.43
2018-10-06T04:21:45.921Z,19.07
2018-10-06T04:24:17.842Z,24.13
2018-10-06T04:26:49.189Z,26.23
2018-10-06T04:29:19.790Z,21.47
2018-10-06T04:31:50.196Z,18.50
2018-10-06T04:34:20.803Z,20.43
2018-10-06T04:36:51.329Z,18.33
2018-10-06T04:39:22.919Z,17.27
2018-10-06T04:41:53.216Z,19.63
2018-10-06T04:44:23.827Z,17.30
2018-10-06T04:46:54.351Z,32.57
2018-10-06T04:49:24.895Z,22.03
2018-10-06T04:51:55.531Z,22.77
2018-10-06T04:54:26.114Z,22.13
2018-10-06T04:56:56.633Z,20.53
2018-10-06T04:59:27.329Z,24.10
2018-10-06T05:01:57.939Z,17.23
2018-10-06T05:04:28.463Z,17.57
2018-10-06T05:07:00.384Z,22.80
2018-10-06T05:09:30.655Z,32.17
2018-10-06T05:12:01.177Z,25.67
2018-10-06T05:14:31.919Z,23.10
2018-10-06T05:17:02.981Z,31.10
2018-10-06T05:19:33.485Z,28.50
2018-10-06T05:22:04.022Z,28.67
2018-10-06T05:24:34.574Z,24.13
2018-10-06T05:27:05.281Z,25.17
2018-10-06T05:29:36.127Z,30.73
2018-10-06T05:32:07.067Z,23.67
2018-10-06T05:34:37.582Z,21.13
2018-10-06T05:37:08.294Z,18.13
2018-10-06T05:39:38.809Z,23.80
2018-10-06T05:42:09.499Z,23.23
2018-10-06T05:44:39.744Z,21.70
2018-10-06T05:47:10.297Z,23.87
2018-10-06T05:49:41.634Z,28.77
2018-10-06T05:52:12.485Z,27.30
2018-10-06T05:54:43.183Z,28.47
2018-10-06T05:57:13.683Z,21.90
2018-10-06T05:59:44.313Z,19.20
2018-10-06T06:02:14.976Z,30.27
2018-10-06T06:04:45.368Z,27.30
2018-10-06T06:07:15.757Z,30.70
2018-10-06T06:09:46.376Z,20.30
2018-10-06T06:12:16.704Z,23.50
2018-10-06T06:14:47.213Z,16.13
2018-10-06T06:17:17.773Z,20.03
2018-10-06T06:19:48.544Z,24.33
2018-10-06T06:22:19.228Z,18.97
2018-10-06T06:24:49.915Z,14.30
2018-10-06T06:27:20.178Z,19.73
2018-10-06T06:29:50.503Z,25.17
2018-10-06T06:32:21.116Z,23.67
2018-10-06T06:34:52.037Z,21.27
2018-10-06T06:37:23.016Z,19.50
2018-10-06T06:39:53.701Z,25.23
2018-10-06T06:42:24.407Z,20.33
2018-10-06T06:44:55.148Z,26.43
2018-10-06T06:47:25.961Z,25.50
2018-10-06T06:49:56.489Z,27.93
2018-10-06T06:52:27.300Z,19.03
2018-10-06T06:54:57.996Z,22.37
2018-10-06T06:57:28.805Z,18.80
2018-10-06T07:00:00.393Z,19.63
2018-10-06T07:02:30.839Z,35.00
2018-10-06T07:05:01.470Z,26.10
2018-10-06T07:07:31.721Z,22.33
2018-10-06T07:10:02.299Z,25.53
2018-10-06T07:12:32.839Z,28.50
2018-10-06T07:15:03.524Z,29.10
2018-10-06T07:17:33.746Z,24.13
2018-10-06T07:20:04.613Z,26.13
2018-10-06T07:22:35.205Z,20.20
2018-10-06T07:25:05.922Z,21.50
2018-10-06T07:27:37.001Z,18.50
2018-10-06T07:30:07.689Z,21.47
2018-10-06T07:32:38.233Z,22.60
2018-10-06T07:35:08.535Z,28.00
2018-10-06T07:37:38.801Z,22.33
2018-10-06T07:40:09.383Z,20.80
2018-10-06T07:42:39.879Z,18.37
2018-10-06T07:45:10.426Z,30.43
2018-10-06T07:47:41.180Z,15.23
2018-10-06T07:50:11.787Z,11.70
2018-10-06T07:52:42.408Z,20.93
2018-10-06T07:55:12.952Z,18.40
2018-10-06T07:57:43.539Z,20.97
2018-10-06T08:00:14.134Z,16.90
2018-10-06T08:02:44.751Z,19.63
2018-10-06T08:05:15.450Z,25.70
2018-10-06T08:07:45.969Z,23.43
2018-10-06T08:10:16.509Z,18.13
2018-10-06T08:12:46.751Z,17.33
2018-10-06T08:15:17.533Z,13.00
2018-10-06T08:17:48.368Z,17.27
2018-10-06T08:20:19.068Z,24.33
2018-10-06T08:22:49.304Z,26.30
2018-10-06T08:25:20.843Z,19.10
2018-10-06T08:27:51.407Z,13.30
2018-10-06T08:30:22.258Z,19.97
2018-10-06T08:32:52.806Z,21.33
2018-10-06T08:35:23.360Z,19.33
2018-10-06T08:37:54.156Z,21.00
2018-10-06T08:40:24.718Z,15.33
2018-10-06T08:42:55.644Z,15.43
2018-10-06T08:45:26.394Z,14.60
2018-10-06T08:47:56.923Z,16.00
2018-10-06T08:50:27.463Z,15.00
2018-10-06T08:52:58.047Z,26.37
2018-10-06T08:55:28.571Z,18.07
2018-10-06T08:57:59.338Z,17.60
2018-10-06T09:00:29.905Z,20.97
2018-10-06T09:03:00.156Z,24.83
2018-10-06T09:05:30.724Z,14.23
2018-10-06T09:08:01.257Z,17.00
2018-10-06T09:10:31.996Z,24.97
2018-10-06T09:13:02.562Z,19.07
2018-10-06T09:15:32.881Z,13.30
2018-10-06T09:18:03.426Z,15.70
2018-10-06T09:20:34.119Z,18.50
2018-10-06T09:23:04.907Z,15.30
2018-10-06T09:25:35.420Z,19.03
2018-10-06T09:28:06.563Z,17.93
2018-10-06T09:30:37.498Z,26.30
2018-10-06T09:33:08.251Z,14.57
2018-10-06T09:35:39.097Z,18.60
2018-10-06T09:38:09.635Z,24.93
2018-10-06T09:40:39.887Z,14.53
2018-10-06T09:43:10.427Z,12.57
2018-10-06T09:45:40.992Z,13.20
2018-10-06T09:48:11.591Z,13.93
2018-10-06T09:50:42.900Z,16.63
2018-10-06T09:53:13.439Z,10.60
2018-10-06T09:55:43.969Z,27.33
2018-10-06T09:58:14.500Z,18.67
2018-10-06T10:00:50.402Z,15.63
2018-10-06T10:03:26.332Z,12.17
2018-10-06T10:05:56.617Z,13.93
2018-10-06T10:08:27.044Z,11.60
2018-10-06T10:10:57.881Z,15.50
2018-10-06T10:13:28.410Z,12.20
2018-10-06T10:16:00.708Z,10.53
2018-10-06T10:18:31.261Z,14.13
2018-10-06T10:21:01.681Z,11.27
2018-10-06T10:23:32.355Z,7.73
2018-10-06T10:26:02.916Z,7.60
2018-10-06T10:28:34.054Z,12.10
2018-10-06T10:31:04.629Z,7.90
2018-10-06T10:33:35.157Z,7.37
2018-10-06T10:36:05.670Z,11.23
2018-10-06T10:38:36.252Z,10.77
2018-10-06T10:41:06.768Z,15.40
2018-10-06T10:43:38.018Z,16.00
2018-10-06T10:46:08.412Z,6.83
2018-10-06T10:48:39.215Z,14.63
2018-10-06T10:51:09.468Z,5.97
2018-10-06T10:53:40.505Z,6.30
2018-10-06T10:56:11.552Z,14.63
2018-10-06T10:58:42.330Z,8.27
2018-10-06T11:01:12.759Z,8.13
2018-10-06T11:03:43.211Z,7.57
2018-10-06T11:06:13.866Z,9.43
2018-10-06T11:08:44.968Z,11.80
2018-10-06T11:11:15.552Z,5.97
2018-10-06T11:13:46.239Z,8.17
2018-10-06T11:16:16.582Z,8.17
2018-10-06T11:18:47.153Z,9.40
2018-10-06T11:21:17.379Z,5.50
2018-10-06T11:23:48.167Z,15.63
2018-10-06T11:26:19.274Z,9.97
2018-10-06T11:28:49.800Z,10.40
2018-10-06T11:31:20.325Z,13.27
2018-10-06T11:33:50.930Z,7.47
2018-10-06T11:36:21.741Z,7.20
2018-10-06T11:38:52.582Z,6.07
2018-10-06T11:41:23.211Z,6.50
2018-10-06T11:43:53.860Z,5.83
2018-10-06T11:46:24.433Z,9.60
2018-10-06T11:48:54.664Z,7.00
2018-10-06T11:51:25.227Z,5.47
2018-10-06T11:53:56.049Z,6.37
2018-10-06T11:56:26.257Z,10.07
2018-10-06T11:58:56.858Z,4.93
2018-10-06T12:01:27.386Z,7.97
2018-10-06T12:03:58.221Z,12.83
2018-10-06T12:06:28.577Z,11.23
2018-10-06T12:09:02.840Z,5.87
2018-10-06T12:11:33.221Z,14.53
2018-10-06T12:14:03.792Z,5.83
2018-10-06T12:16:34.393Z,14.60
2018-10-06T12:19:05.058Z,7.50
2018-10-06T12:21:35.884Z,7.10
2018-10-06T12:24:06.757Z,4.67
2018-10-06T12:26:37.392Z,12.20
2018-10-06T12:29:07.965Z,7.77
2018-10-06T12:31:38.244Z,5.90
2018-10-06T12:34:09.124Z,7.77
2018-10-06T12:36:39.698Z,9.40
2018-10-06T12:39:10.501Z,21.67
2018-10-06T12:41:41.149Z,10.93
2018-10-06T12:44:11.880Z,5.20
2018-10-06T12:46:42.446Z,6.90
2018-10-06T12:49:12.979Z,10.37
2018-10-06T12:51:43.592Z,6.80
2018-10-06T12:54:14.230Z,6.60
2018-10-06T12:56:44.884Z,9.83
2018-10-06T12:59:15.551Z,5.97
2018-10-06T13:01:46.197Z,5.10
2018-10-06T13:04:16.780Z,11.73
2018-10-06T13:06:47.331Z,5.77
2018-10-06T13:09:17.995Z,7.80
2018-10-06T13:11:48.356Z,6.67
2018-10-06T13:14:18.798Z,12.03
2018-10-06T13:16:49.511Z,10.10
2018-10-06T13:19:19.934Z,6.70
2018-10-06T13:21:50.829Z,16.63
2018-10-06T13:24:21.130Z,7.63
2018-10-06T13:26:54.138Z,6.47
2018-10-06T13:29:24.821Z,6.30
2018-10-06T13:31:55.568Z,15.37
2018-10-06T13:34:26.295Z,10.73
2018-10-06T13:36:56.985Z,6.70
2018-10-06T13:39:27.545Z,11.13
2018-10-06T13:41:58.070Z,12.60
2018-10-06T13:44:28.599Z,9.13
2018-10-06T13:47:00.164Z,19.97
2018-10-06T13:49:30.950Z,9.13
2018-10-06T13:52:01.276Z,10.40
2018-10-06T13:54:31.637Z,10.20
2018-10-06T13:57:02.362Z,12.37
2018-10-06T13:59:33.346Z,6.07
2018-10-06T14:02:04.153Z,10.50
2018-10-06T14:04:34.533Z,8.00
2018-10-06T14:07:04.341Z,9.23
2018-10-06T14:09:37.337Z,11.00
2018-10-06T14:12:08.068Z,9.90
2018-10-06T14:14:39.021Z,6.80
2018-10-06T14:17:09.716Z,6.70
2018-10-06T14:19:39.960Z,14.67
2018-10-06T14:22:10.268Z,9.67
2018-10-06T14:24:40.724Z,9.37
2018-10-06T14:27:10.980Z,12.53
2018-10-06T14:29:41.244Z,6.60
2018-10-06T14:32:11.532Z,9.23
2018-10-06T14:34:42.297Z,12.07
2018-10-06T14:37:13.109Z,5.27
2018-10-06T14:39:44.054Z,6.23
2018-10-06T14:42:14.576Z,9.93
2018-10-06T14:44:45.132Z,8.93
2018-10-06T14:47:15.448Z,5.30
2018-10-06T14:49:46.366Z,6.57
2018-10-06T14:52:16.911Z,7.73
2018-10-06T14:54:47.742Z,5.97
2018-10-06T14:57:18.262Z,13.30
2018-10-06T14:59:49.151Z,12.70
2018-10-06T15:02:19.662Z,7.00
2018-10-06T15:04:50.171Z,10.10
2018-10-06T15:07:20.459Z,6.17
2018-10-06T15:09:51.237Z,13.73
2018-10-06T15:12:21.738Z,11.97
2018-10-06T15:14:52.303Z,5.97
2018-10-06T15:17:22.840Z,9.13
2018-10-06T15:19:53.376Z,6.40
2018-10-06T15:22:23.622Z,6.37
2018-10-06T15:24:54.431Z,15.10
2018-10-06T15:27:25.160Z,10.70
2018-10-06T15:29:55.891Z,6.23
2018-10-06T15:32:26.422Z,11.07
2018-10-06T15:34:57.008Z,16.33
2018-10-06T15:37:28.713Z,9.63
2018-10-06T15:39:59.313Z,9.63
2018-10-06T15:42:29.872Z,12.03
2018-10-06T15:45:00.790Z,9.90
2018-10-06T15:47:31.096Z,14.10
2018-10-06T15:50:01.869Z,9.70
2018-10-06T15:52:32.176Z,10.93
2018-10-06T15:55:02.716Z,8.90
2018-10-06T15:57:33.047Z,12.13
2018-10-06T16:00:03.672Z,10.37
2018-10-06T16:02:34.610Z,9.40
2018-10-06T16:05:05.462Z,8.33
2018-10-06T16:07:35.712Z,8.47
2018-10-06T16:10:06.837Z,13.27
2018-10-06T16:12:37.357Z,14.23
2018-10-06T16:15:07.942Z,8.63
2018-10-06T16:17:38.484Z,7.53
2018-10-06T16:20:08.729Z,19.83
2018-10-06T16:22:38.970Z,8.40
2018-10-06T16:25:09.523Z,10.43
2018-10-06T16:27:40.349Z,9.03
2018-10-06T16:30:11.083Z,11.03
2018-10-06T16:32:41.797Z,7.60
2018-10-06T16:35:12.309Z,10.03
2018-10-06T16:37:43.157Z,10.10
2018-10-06T16:40:13.981Z,14.63
2018-10-06T16:42:44.514Z,9.27
2018-10-06T16:45:15.262Z,12.10
2018-10-06T16:47:45.825Z,16.70
2018-10-06T16:50:16.108Z,8.73
2018-10-06T16:52:46.712Z,13.13
2018-10-06T16:55:17.496Z,10.47
2018-10-06T16:57:48.022Z,15.20
2018-10-06T17:00:19.018Z,15.77
2018-10-06T17:02:49.735Z,11.63
2018-10-06T17:05:20.230Z,12.87
2018-10-06T17:07:50.816Z,23.73
2018-10-06T17:10:21.599Z,9.93
2018-10-06T17:12:52.622Z,13.60
2018-10-06T17:15:23.805Z,17.30
2018-10-06T17:17:54.301Z,10.47
2018-10-06T17:20:24.816Z,11.03
2018-10-06T17:22:55.429Z,18.70
2018-10-06T17:25:25.984Z,8.67
2018-10-06T17:27:56.821Z,15.10
2018-10-06T17:30:27.382Z,17.50
2018-10-06T17:32:58.216Z,10.13
2018-10-06T17:35:28.738Z,11.07
2018-10-06T17:37:59.945Z,13.30
2018-10-06T17:40:30.455Z,11.07
2018-10-06T17:43:01.172Z,17.63
2018-10-06T17:45:31.511Z,11.50
2018-10-06T17:48:03.180Z,21.70
2018-10-06T17:50:33.931Z,9.47
2018-10-06T17:53:04.545Z,10.37
2018-10-06T17:55:35.143Z,17.50
2018-10-06T17:58:05.634Z,10.43
2018-10-06T18:00:36.650Z,11.20
2018-10-06T18:03:07.072Z,15.43
2018-10-06T18:05:37.312Z,17.47
2018-10-06T18:08:08.102Z,8.50
2018-10-06T18:10:38.912Z,15.60
2018-10-06T18:13:09.433Z,10.83
2018-10-06T18:15:41.414Z,9.13
2018-10-06T18:18:12.058Z,14.17
2018-10-06T18:20:42.446Z,9.90
2018-10-06T18:23:12.824Z,13.63
2018-10-06T18:25:43.664Z,9.00
2018-10-06T18:28:14.442Z,16.80
2018-10-06T18:30:44.988Z,8.33
2018-10-06T18:33:15.884Z,8.93
2018-10-06T18:35:46.525Z,13.27
2018-10-06T18:38:17.142Z,14.00
2018-10-06T18:40:47.408Z,13.33
2018-10-06T18:43:18.567Z,11.50
2018-10-06T18:45:50.473Z,11.30
2018-10-06T18:48:21.048Z,11.50
2018-10-06T18:50:51.708Z,11.93
2018-10-06T18:53:21.960Z,18.97
2018-10-06T18:55:52.754Z,12.67
2018-10-06T18:58:23.185Z,13.70
2018-10-06T19:00:53.808Z,9.10
2018-10-06T19:03:24.709Z,15.20
2018-10-06T19:05:55.367Z,16.43
2018-10-06T19:08:25.869Z,13.97
2018-10-06T19:10:56.887Z,12.87
2018-10-06T19:13:27.617Z,12.90
2018-10-06T19:15:58.249Z,12.60
2018-10-06T19:18:29.194Z,14.53
2018-10-06T19:21:00.056Z,8.13
2018-10-06T19:23:30.557Z,10.60
2018-10-06T19:26:04.108Z,12.77
2018-10-06T19:28:35.149Z,11.83
2018-10-06T19:31:06.314Z,12.00
2018-10-06T19:33:36.840Z,14.97
2018-10-06T19:36:07.680Z,10.50
2018-10-06T19:38:38.198Z,19.37
2018-10-06T19:41:08.480Z,12.87
2018-10-06T19:43:38.829Z,13.47
2018-10-06T19:46:09.920Z,10.97
2018-10-06T19:48:40.438Z,12.17
2018-10-06T19:51:11.063Z,10.90
2018-10-06T19:53:41.924Z,12.80
2018-10-06T19:56:12.530Z,11.50
2018-10-06T19:58:42.821Z,14.27
2018-10-06T20:01:13.529Z,13.40
2018-10-06T20:03:44.095Z,16.30
2018-10-06T20:06:14.655Z,15.60
2018-10-06T20:08:45.455Z,18.23
2018-10-06T20:11:16.591Z,23.43
2018-10-06T20:13:48.020Z,28.63
2018-10-06T20:16:19.589Z,15.87
2018-10-06T20:18:50.281Z,16.43
2018-10-06T20:21:21.360Z,12.90
2018-10-06T20:23:53.021Z,13.80
2018-10-06T20:26:24.455Z,11.80
2018-10-06T20:28:55.207Z,18.37
2018-10-06T20:31:25.813Z,16.93
2018-10-06T20:33:56.414Z,17.43
2018-10-06T20:36:27.168Z,12.77
2018-10-06T20:38:58.156Z,23.83
2018-10-06T20:41:28.998Z,8.40
2018-10-06T20:43:59.796Z,16.37
2018-10-06T20:46:30.453Z,11.67
2018-10-06T20:49:01.381Z,13.80
2018-10-06T20:51:31.688Z,18.23
2018-10-06T20:54:01.932Z,10.60
2018-10-06T20:56:41.850Z,16.33
2018-10-06T20:59:12.724Z,9.63
2018-10-06T21:01:43.256Z,18.63
2018-10-06T21:04:14.233Z,11.90
2018-10-06T21:06:45.121Z,13.40
2018-10-06T21:09:16.049Z,10.50
2018-10-06T21:11:46.889Z,13.45
2018-10-06T21:14:17.732Z,14.93
2018-10-06T21:16:48.286Z,14.90
2018-10-06T21:19:18.584Z,21.33
2018-10-06T21:21:49.128Z,16.53
2018-10-06T21:24:19.682Z,9.13
2018-10-06T21:26:54.034Z,10.83
2018-10-06T21:29:26.760Z,7.40
2018-10-06T21:32:00.055Z,12.03
2018-10-06T21:34:30.932Z,11.97
2018-10-06T21:37:01.710Z,11.27
2018-10-06T21:39:33.060Z,12.03
2018-10-06T21:42:04.072Z,15.63
2018-10-06T21:44:34.746Z,10.80
2018-10-06T21:47:06.392Z,16.47
2018-10-06T21:49:37.408Z,7.67
2018-10-06T21:52:08.090Z,10.60
2018-10-06T21:54:38.617Z,8.33
2018-10-06T21:57:09.316Z,14.57
2018-10-06T21:59:39.933Z,7.00
2018-10-06T22:02:10.252Z,10.87
2018-10-06T22:04:40.592Z,11.83
2018-10-06T22:07:11.143Z,13.90
2018-10-06T22:09:42.173Z,11.63
2018-10-06T22:12:12.476Z,10.43
2018-10-06T22:14:43.018Z,7.20
2018-10-06T22:17:13.616Z,8.30
2018-10-06T22:19:44.144Z,7.80
2018-10-06T22:22:14.721Z,11.10
2018-10-06T22:24:46.751Z,12.63
2018-10-06T22:27:17.863Z,8.40
2018-10-06T22:29:48.648Z,10.30
2018-10-06T22:32:18.942Z,10.43
2018-10-06T22:34:49.654Z,10.73
2018-10-06T22:37:20.375Z,12.03
2018-10-06T22:39:50.979Z,9.27
2018-10-06T22:42:21.269Z,9.50
2018-10-06T22:44:51.847Z,10.67
2018-10-06T22:47:22.402Z,13.43
2018-10-06T22:49:53.387Z,14.33
2018-10-06T22:52:23.986Z,10.87
2018-10-06T22:54:54.614Z,17.33
2018-10-06T22:57:25.202Z,12.03
2018-10-06T22:59:55.507Z,18.43
2018-10-06T23:02:26.012Z,13.43
2018-10-06T23:04:56.578Z,11.13
2018-10-06T23:07:26.952Z,12.93
2018-10-06T23:09:57.462Z,11.40
2018-10-06T23:12:27.767Z,14.93
2018-10-06T23:14:58.168Z,13.97
2018-10-06T23:17:28.712Z,17.93
2018-10-06T23:19:58.974Z,12.83
2018-10-06T23:22:29.517Z,10.60
2018-10-06T23:25:00.562Z,14.00
2018-10-06T23:27:31.782Z,14.23
2018-10-06T23:30:02.337Z,10.83
2018-10-06T23:32:32.882Z,9.13
2018-10-06T23:35:04.010Z,13.20
2018-10-06T23:37:34.512Z,15.77
2018-10-06T23:40:05.173Z,16.70
2018-10-06T23:42:35.728Z,19.97
2018-10-06T23:45:06.513Z,11.23
2018-10-06T23:47:37.157Z,13.27
2018-10-06T23:50:08.314Z,18.13
2018-10-06T23:52:38.570Z,10.90
2018-10-06T23:55:09.485Z,19.43
2018-10-06T23:57:40.039Z,14.00
